createdAt,value
2018-07-07T00:00:54.942Z,91.50
2018-07-07T00:03:23.077Z,91.10
2018-07-07T00:05:51.222Z,91.30
2018-07-07T00:08:19.413Z,91.90
2018-07-07T00:10:55.494Z,91.60
2018-07-07T00:13:23.674Z,91.40
2018-07-07T00:15:51.826Z,92.00
2018-07-07T00:18:19.975Z,91.80
2018-07-07T00:20:48.122Z,92.00
2018-07-07T00:23:16.334Z,91.80
2018-07-07T00:25:44.479Z,92.30
2018-07-07T00:28:12.621Z,92.20
2018-07-07T00:30:40.801Z,91.90
2018-07-07T00:33:09.077Z,92.10
2018-07-07T00:35:37.229Z,92.00
2018-07-07T00:38:05.465Z,91.80
2018-07-07T00:40:33.634Z,91.60
2018-07-07T00:43:02.162Z,91.40
2018-07-07T00:45:30.361Z,91.70
2018-07-07T00:47:58.509Z,91.70
2018-07-07T00:50:26.696Z,91.90
2018-07-07T00:52:54.913Z,92.00
2018-07-07T00:55:23.061Z,91.60
2018-07-07T00:57:51.206Z,91.50
2018-07-07T01:00:19.359Z,91.40
2018-07-07T01:02:47.502Z,90.70
2018-07-07T01:05:27.085Z,90.70
2018-07-07T01:07:55.233Z,90.40
2018-07-07T01:10:23.438Z,90.30
2018-07-07T01:12:51.575Z,89.70
2018-07-07T01:15:19.707Z,90.20
2018-07-07T01:17:47.881Z,89.90
2018-07-07T01:20:16.303Z,89.10
2018-07-07T01:22:44.450Z,88.40
2018-07-07T01:25:12.586Z,89.20
2018-07-07T01:27:40.733Z,89.50
2018-07-07T01:30:08.922Z,89.60
2018-07-07T01:35:04.974Z,90.40
2018-07-07T01:37:33.787Z,89.70
2018-07-07T01:40:01.926Z,88.40
2018-07-07T01:42:30.077Z,87.80
2018-07-07T01:44:58.201Z,86.90
2018-07-07T01:47:26.341Z,86.30
2018-07-07T01:49:54.505Z,85.20
2018-07-07T01:52:22.722Z,85.90
2018-07-07T01:54:50.849Z,85.70
2018-07-07T01:57:19.010Z,85.20
2018-07-07T01:59:47.173Z,85.20
2018-07-07T02:04:43.286Z,85.30
2018-07-07T02:07:11.441Z,84.70
2018-07-07T02:09:39.629Z,85.00
2018-07-07T02:12:07.842Z,84.60
2018-07-07T02:14:36.013Z,85.30
2018-07-07T02:17:04.206Z,86.20
2018-07-07T02:22:00.293Z,85.30
2018-07-07T02:24:28.446Z,85.30
2018-07-07T02:26:56.592Z,85.30
2018-07-07T02:29:24.787Z,85.70
2018-07-07T02:31:52.949Z,85.20
2018-07-07T02:34:21.125Z,84.90
2018-07-07T02:36:49.262Z,86.00
2018-07-07T02:39:17.415Z,85.70
2018-07-07T02:41:46.506Z,85.40
2018-07-07T02:44:14.657Z,85.00
2018-07-07T02:46:42.802Z,84.60
2018-07-07T02:49:10.950Z,85.00
2018-07-07T02:51:39.099Z,85.50
2018-07-07T02:54:07.299Z,85.50
2018-07-07T02:56:35.627Z,85.60
2018-07-07T02:59:03.792Z,85.80
2018-07-07T03:01:31.937Z,86.00
2018-07-07T03:04:00.210Z,85.90
2018-07-07T03:06:28.361Z,87.40
2018-07-07T03:08:56.514Z,87.60
2018-07-07T03:11:24.653Z,87.50
2018-07-07T03:13:52.854Z,87.10
2018-07-07T03:16:21.014Z,87.70
2018-07-07T03:18:49.182Z,87.80
2018-07-07T03:21:17.322Z,88.20
2018-07-07T03:23:45.482Z,88.30
2018-07-07T03:26:13.661Z,88.50
2018-07-07T03:28:41.827Z,89.50
2018-07-07T03:31:10.078Z,89.20
2018-07-07T03:33:38.208Z,90.20
2018-07-07T03:36:06.537Z,89.80
2018-07-07T03:38:34.713Z,89.60
2018-07-07T03:41:02.873Z,89.70
2018-07-07T03:43:31.121Z,89.80
2018-07-07T03:45:59.293Z,90.00
2018-07-07T03:48:27.541Z,90.10
2018-07-07T03:50:55.710Z,89.90
2018-07-07T03:53:24.034Z,90.40
2018-07-07T03:55:52.262Z,90.80
2018-07-07T03:58:20.545Z,90.80
2018-07-07T04:00:48.697Z,91.10
2018-07-07T04:03:16.843Z,91.20
2018-07-07T04:05:45.130Z,91.40
2018-07-07T04:08:13.433Z,91.30
2018-07-07T04:10:41.590Z,91.20
2018-07-07T04:13:09.733Z,91.40
2018-07-07T04:15:37.885Z,91.60
2018-07-07T04:18:06.218Z,91.70
2018-07-07T04:20:34.418Z,92.00
2018-07-07T04:23:02.570Z,92.20
2018-07-07T04:25:30.725Z,92.20
2018-07-07T04:27:58.970Z,92.20
2018-07-07T04:30:27.130Z,92.30
2018-07-07T04:32:55.266Z,92.60
2018-07-07T04:35:23.418Z,92.70
2018-07-07T04:37:52.263Z,92.70
2018-07-07T04:40:20.446Z,93.10
2018-07-07T04:42:48.585Z,93.00
2018-07-07T04:45:16.742Z,93.30
2018-07-07T04:47:44.882Z,93.30
2018-07-07T04:50:13.100Z,93.50
2018-07-07T04:52:41.268Z,93.70
2018-07-07T04:55:09.418Z,93.80
2018-07-07T04:57:37.545Z,93.70
2018-07-07T05:00:05.728Z,93.80
2018-07-07T05:02:33.889Z,93.70
2018-07-07T05:05:02.026Z,94.00
2018-07-07T05:07:30.166Z,93.80
2018-07-07T05:09:58.418Z,94.00
2018-07-07T05:12:27.360Z,94.10
2018-07-07T05:14:55.514Z,94.10
2018-07-07T05:17:23.659Z,93.90
2018-07-07T05:19:51.825Z,94.00
2018-07-07T05:22:20.014Z,94.10
2018-07-07T05:24:48.193Z,93.90
2018-07-07T05:27:16.334Z,94.00
2018-07-07T05:29:44.462Z,94.00
2018-07-07T05:32:12.629Z,93.90
2018-07-07T05:34:40.754Z,93.70
2018-07-07T05:37:08.912Z,93.80
2018-07-07T05:39:37.033Z,94.10
2018-07-07T05:42:05.421Z,94.00
2018-07-07T05:44:33.630Z,94.10
2018-07-07T05:47:01.803Z,94.20
2018-07-07T05:49:29.937Z,94.80
2018-07-07T05:51:58.086Z,94.70
2018-07-07T05:54:26.334Z,94.70
2018-07-07T05:56:54.474Z,94.30
2018-07-07T05:59:22.605Z,94.10
2018-07-07T06:01:50.798Z,94.20
2018-07-07T06:04:18.966Z,94.40
2018-07-07T06:06:47.149Z,94.20
2018-07-07T06:09:15.280Z,94.60
2018-07-07T06:11:43.409Z,94.30
2018-07-07T06:14:11.567Z,94.60
2018-07-07T06:16:39.732Z,94.00
2018-07-07T06:19:07.932Z,94.40
2018-07-07T06:21:36.062Z,94.00
2018-07-07T06:24:04.251Z,93.30
2018-07-07T06:26:32.581Z,92.40
2018-07-07T06:29:00.674Z,92.80
2018-07-07T06:31:29.357Z,92.60
2018-07-07T06:33:57.538Z,91.30
2018-07-07T06:36:25.790Z,92.10
2018-07-07T06:38:53.957Z,92.50
2018-07-07T06:41:22.134Z,91.50
2018-07-07T06:43:50.287Z,91.10
2018-07-07T06:46:18.478Z,91.20
2018-07-07T06:48:47.833Z,91.30
2018-07-07T06:51:15.993Z,91.30
2018-07-07T06:53:44.218Z,90.70
2018-07-07T06:56:12.283Z,90.30
2018-07-07T06:58:40.430Z,91.50
2018-07-07T07:01:08.590Z,91.30
2018-07-07T07:03:36.739Z,91.90
2018-07-07T07:06:04.877Z,91.60
2018-07-07T07:08:33.062Z,91.40
2018-07-07T07:13:29.370Z,89.40
2018-07-07T07:15:57.518Z,89.90
2018-07-07T07:18:25.721Z,90.60
2018-07-07T07:20:53.946Z,89.60
2018-07-07T07:23:22.105Z,90.10
2018-07-07T07:25:50.245Z,90.50
2018-07-07T07:28:18.379Z,88.50
2018-07-07T07:30:46.553Z,88.10
2018-07-07T07:33:14.819Z,90.20
2018-07-07T07:35:42.954Z,89.00
2018-07-07T07:38:11.081Z,89.20
2018-07-07T07:40:39.246Z,86.70
2018-07-07T07:43:07.616Z,86.80
2018-07-07T07:45:35.887Z,86.60
2018-07-07T07:48:04.010Z,90.20
2018-07-07T07:50:32.151Z,90.00
2018-07-07T07:53:00.516Z,89.20
2018-07-07T07:55:28.686Z,87.90
2018-07-07T07:57:56.909Z,90.00
2018-07-07T08:00:25.080Z,89.50
2018-07-07T08:02:53.255Z,88.00
2018-07-07T08:05:21.470Z,89.40
2018-07-07T08:07:49.617Z,86.90
2018-07-07T08:10:18.088Z,87.50
2018-07-07T08:12:46.338Z,84.60
2018-07-07T08:15:14.616Z,86.90
2018-07-07T08:17:42.774Z,85.90
2018-07-07T08:20:10.918Z,83.90
2018-07-07T08:22:39.080Z,87.30
2018-07-07T08:25:07.193Z,87.20
2018-07-07T08:27:35.334Z,86.10
2018-07-07T08:30:03.477Z,88.90
2018-07-07T08:32:31.605Z,88.10
2018-07-07T08:34:59.734Z,89.60
2018-07-07T08:37:27.881Z,87.50
2018-07-07T08:39:56.014Z,88.10
2018-07-07T08:42:24.157Z,85.70
2018-07-07T08:44:52.289Z,87.80
2018-07-07T08:47:20.446Z,88.70
2018-07-07T08:49:48.566Z,90.10
2018-07-07T08:52:16.713Z,87.20
2018-07-07T08:54:44.845Z,87.30
2018-07-07T08:57:13.046Z,85.20
2018-07-07T08:59:41.318Z,89.00
2018-07-07T09:02:10.629Z,87.90
2018-07-07T09:04:38.882Z,88.40
2018-07-07T09:07:07.430Z,85.90
2018-07-07T09:09:35.670Z,86.20
2018-07-07T09:12:03.931Z,87.40
2018-07-07T09:14:33.306Z,85.60
2018-07-07T09:17:01.458Z,86.20
2018-07-07T09:19:30.645Z,87.30
2018-07-07T09:21:58.826Z,86.50
2018-07-07T09:24:26.960Z,85.80
2018-07-07T09:26:55.101Z,84.70
2018-07-07T09:29:23.233Z,86.40
2018-07-07T09:31:51.950Z,86.10
2018-07-07T09:34:20.083Z,85.90
2018-07-07T09:36:48.318Z,84.90
2018-07-07T09:39:16.505Z,85.20
2018-07-07T09:41:44.665Z,87.50
2018-07-07T09:44:12.838Z,86.70
2018-07-07T09:46:41.062Z,85.40
2018-07-07T09:49:09.238Z,85.90
2018-07-07T09:51:37.649Z,86.80
2018-07-07T09:54:06.023Z,86.00
2018-07-07T09:56:34.218Z,86.70
2018-07-07T09:59:02.588Z,85.60
2018-07-07T10:01:30.818Z,84.90
2018-07-07T10:03:59.042Z,85.30
2018-07-07T10:06:27.464Z,85.40
2018-07-07T10:08:56.641Z,84.30
2018-07-07T10:11:24.805Z,83.60
2018-07-07T10:13:52.965Z,83.20
2018-07-07T10:16:21.499Z,82.90
2018-07-07T10:18:49.639Z,82.40
2018-07-07T10:21:17.802Z,84.30
2018-07-07T10:23:45.969Z,83.40
2018-07-07T10:26:14.251Z,80.10
2018-07-07T10:28:42.386Z,82.80
2018-07-07T10:31:10.538Z,82.40
2018-07-07T10:33:38.729Z,81.30
2018-07-07T10:36:06.993Z,81.50
2018-07-07T10:38:35.248Z,80.40
2018-07-07T10:41:03.393Z,83.40
2018-07-07T10:43:31.584Z,81.30
2018-07-07T10:45:59.859Z,82.10
2018-07-07T10:48:27.950Z,79.50
2018-07-07T10:50:56.099Z,80.70
2018-07-07T10:53:24.287Z,81.70
2018-07-07T10:55:52.418Z,81.40
2018-07-07T10:58:20.569Z,83.90
2018-07-07T11:00:48.710Z,79.00
2018-07-07T11:03:16.892Z,79.30
2018-07-07T11:05:45.058Z,78.40
2018-07-07T11:08:13.213Z,77.50
2018-07-07T11:10:41.385Z,80.10
2018-07-07T11:13:09.821Z,80.70
2018-07-07T11:15:38.040Z,81.90
2018-07-07T11:18:06.210Z,81.00
2018-07-07T11:20:34.618Z,80.50
2018-07-07T11:23:02.754Z,77.90
2018-07-07T11:27:58.982Z,80.30
2018-07-07T11:30:27.131Z,79.90
2018-07-07T11:32:55.300Z,81.90
2018-07-07T11:35:23.466Z,80.00
2018-07-07T11:37:51.648Z,78.90
2018-07-07T11:40:19.789Z,78.00
2018-07-07T11:42:47.953Z,79.20
2018-07-07T11:45:16.097Z,77.30
2018-07-07T11:47:44.232Z,79.10
2018-07-07T11:50:12.501Z,80.70
2018-07-07T11:52:40.654Z,81.20
2018-07-07T11:55:08.958Z,81.50
2018-07-07T11:57:37.106Z,80.50
2018-07-07T12:00:05.353Z,81.40
2018-07-07T12:02:33.578Z,80.80
2018-07-07T12:05:01.719Z,80.30
2018-07-07T12:07:29.880Z,81.10
2018-07-07T12:09:58.027Z,78.70
2018-07-07T12:12:26.153Z,81.20
2018-07-07T12:14:54.378Z,81.10
2018-07-07T12:17:22.522Z,79.30
2018-07-07T12:19:50.726Z,78.90
2018-07-07T12:22:18.861Z,80.10
2018-07-07T12:24:47.046Z,80.40
2018-07-07T12:29:43.134Z,79.30
2018-07-07T12:32:11.275Z,78.10
2018-07-07T12:34:39.417Z,80.40
2018-07-07T12:37:07.826Z,79.70
2018-07-07T12:39:36.049Z,79.30
2018-07-07T12:42:04.204Z,79.40
2018-07-07T12:44:32.338Z,77.60
2018-07-07T12:47:00.507Z,77.20
2018-07-07T12:49:28.635Z,80.00
2018-07-07T12:51:56.797Z,80.50
2018-07-07T12:54:24.954Z,80.70
2018-07-07T12:56:53.449Z,78.90
2018-07-07T12:59:21.586Z,79.00
2018-07-07T13:04:17.746Z,78.60
2018-07-07T13:06:46.046Z,81.00
2018-07-07T13:09:14.318Z,81.30
2018-07-07T13:11:42.508Z,80.90
2018-07-07T13:14:10.683Z,77.80
2018-07-07T13:16:38.825Z,80.00
2018-07-07T13:19:06.971Z,79.20
2018-07-07T13:21:35.150Z,78.70
2018-07-07T13:24:03.270Z,78.10
2018-07-07T13:26:31.575Z,78.30
2018-07-07T13:29:00.189Z,79.50
2018-07-07T13:31:28.425Z,80.90
2018-07-07T13:33:58.455Z,79.60
2018-07-07T13:36:26.661Z,80.90
2018-07-07T13:38:54.905Z,80.80
2018-07-07T13:41:22.958Z,79.80
2018-07-07T13:43:51.101Z,77.80
2018-07-07T13:46:19.252Z,77.70
2018-07-07T13:48:48.094Z,79.00
2018-07-07T13:53:44.354Z,80.70
2018-07-07T13:56:13.024Z,80.30
2018-07-07T13:58:41.237Z,79.40
2018-07-07T14:01:09.410Z,77.30
2018-07-07T14:03:37.597Z,79.50
2018-07-07T14:06:05.752Z,79.10
2018-07-07T14:08:33.887Z,77.90
2018-07-07T14:11:02.198Z,79.50
2018-07-07T14:13:30.373Z,79.80
2018-07-07T14:15:58.557Z,78.30
2018-07-07T14:18:27.194Z,76.60
2018-07-07T14:20:55.354Z,79.00
2018-07-07T14:23:23.506Z,78.80
2018-07-07T14:25:51.842Z,79.30
2018-07-07T14:28:22.257Z,77.40
2018-07-07T14:30:50.393Z,77.70
2018-07-07T14:33:22.368Z,78.20
2018-07-07T14:35:50.554Z,77.80
2018-07-07T14:38:20.863Z,79.00
2018-07-07T14:41:00.525Z,80.50
2018-07-07T14:44:05.711Z,80.30
2018-07-07T14:46:34.826Z,78.90
2018-07-07T14:49:03.035Z,79.90
2018-07-07T14:51:31.165Z,79.30
2018-07-07T14:53:59.354Z,80.80
2018-07-07T14:56:28.242Z,80.40
2018-07-07T14:58:56.598Z,81.30
2018-07-07T15:01:24.869Z,81.20
2018-07-07T15:03:53.189Z,81.50
2018-07-07T15:06:21.354Z,80.30
2018-07-07T15:08:49.529Z,82.10
2018-07-07T15:11:17.706Z,81.10
2018-07-07T15:13:47.546Z,77.90
2018-07-07T15:16:15.705Z,80.00
2018-07-07T15:18:44.377Z,79.00
2018-07-07T15:21:12.589Z,80.10
2018-07-07T15:23:40.730Z,80.90
2018-07-07T15:26:08.909Z,80.20
2018-07-07T15:28:37.253Z,81.70
2018-07-07T15:31:05.558Z,82.10
2018-07-07T15:33:33.723Z,81.40
2018-07-07T15:36:01.866Z,81.50
2018-07-07T15:38:30.095Z,77.40
2018-07-07T15:40:58.233Z,76.80
2018-07-07T15:43:26.426Z,78.50
2018-07-07T15:45:54.590Z,79.50
2018-07-07T15:48:22.753Z,80.90
2018-07-07T15:50:50.909Z,81.10
2018-07-07T15:53:19.148Z,78.30
2018-07-07T15:55:47.306Z,79.80
2018-07-07T15:58:15.515Z,81.20
2018-07-07T16:00:43.682Z,78.40
2018-07-07T16:03:11.846Z,79.90
2018-07-07T16:05:40.002Z,77.80
2018-07-07T16:08:08.137Z,79.20
2018-07-07T16:10:36.344Z,80.00
2018-07-07T16:13:04.494Z,79.60
2018-07-07T16:15:32.726Z,78.50
2018-07-07T16:18:00.874Z,80.70
2018-07-07T16:20:29.081Z,80.30
2018-07-07T16:22:57.266Z,80.70
2018-07-07T16:27:53.337Z,81.70
2018-07-07T16:30:21.483Z,79.10
2018-07-07T16:32:49.710Z,80.40
2018-07-07T16:35:17.888Z,82.00
2018-07-07T16:37:46.035Z,82.00
2018-07-07T16:40:14.177Z,81.90
2018-07-07T16:42:42.553Z,82.40
2018-07-07T16:45:11.042Z,82.80
2018-07-07T16:47:39.194Z,83.20
2018-07-07T16:50:07.406Z,83.50
2018-07-07T16:52:35.592Z,83.20
2018-07-07T16:55:04.220Z,82.80
2018-07-07T16:57:32.709Z,82.40
2018-07-07T17:00:00.838Z,83.00
2018-07-07T17:02:29.274Z,83.30
2018-07-07T17:04:57.497Z,83.30
2018-07-07T17:07:25.637Z,83.80
2018-07-07T17:09:53.992Z,83.70
2018-07-07T17:12:22.945Z,82.90
2018-07-07T17:14:51.118Z,83.20
2018-07-07T17:17:19.306Z,84.50
2018-07-07T17:19:47.549Z,82.00
2018-07-07T17:22:15.818Z,84.10
2018-07-07T17:24:43.967Z,83.90
2018-07-07T17:27:12.137Z,83.30
2018-07-07T17:34:36.810Z,83.90
2018-07-07T17:37:05.754Z,84.50
2018-07-07T17:39:33.898Z,84.40
2018-07-07T17:42:02.079Z,85.00
2018-07-07T17:44:30.233Z,83.80
2018-07-07T17:46:59.269Z,84.60
2018-07-07T17:49:27.450Z,85.00
2018-07-07T17:51:55.781Z,84.50
2018-07-07T17:54:23.957Z,84.50
2018-07-07T17:56:52.250Z,85.40
2018-07-07T17:59:21.045Z,85.00
2018-07-07T18:01:49.226Z,85.30
2018-07-07T18:04:17.590Z,84.50
2018-07-07T18:06:45.753Z,84.90
2018-07-07T18:09:14.094Z,85.10
2018-07-07T18:11:42.482Z,85.30
2018-07-07T18:14:10.526Z,85.40
2018-07-07T18:16:38.674Z,85.20
2018-07-07T18:19:07.123Z,85.60
2018-07-07T18:21:35.243Z,85.20
2018-07-07T18:24:03.398Z,85.90
2018-07-07T18:26:31.570Z,84.90
2018-07-07T18:28:59.822Z,85.40
2018-07-07T18:31:28.161Z,85.50
2018-07-07T18:33:56.326Z,85.90
2018-07-07T18:36:24.486Z,85.50
2018-07-07T18:38:53.957Z,85.60
2018-07-07T18:41:22.114Z,85.60
2018-07-07T18:43:50.278Z,85.70
2018-07-07T18:46:18.556Z,85.30
2018-07-07T18:48:46.777Z,86.30
2018-07-07T18:51:14.887Z,85.60
2018-07-07T18:53:43.056Z,85.40
2018-07-07T18:56:11.213Z,85.50
2018-07-07T18:58:39.383Z,85.30
2018-07-07T19:01:07.527Z,85.00
2018-07-07T19:03:35.678Z,85.90
2018-07-07T19:06:03.824Z,85.10
2018-07-07T19:08:32.020Z,85.10
2018-07-07T19:11:00.185Z,85.30
2018-07-07T19:13:28.334Z,84.70
2018-07-07T19:15:56.587Z,85.30
2018-07-07T19:18:24.763Z,84.40
2018-07-07T19:20:58.468Z,85.40
2018-07-07T19:25:34.318Z,85.50
2018-07-07T19:28:02.470Z,85.90
2018-07-07T19:30:30.625Z,85.80
2018-07-07T19:33:04.306Z,85.80
2018-07-07T19:35:37.819Z,86.40
2018-07-07T19:38:06.014Z,86.70
2018-07-07T19:40:34.225Z,86.50
2018-07-07T19:43:02.501Z,87.00
2018-07-07T19:45:30.661Z,86.80
2018-07-07T19:47:58.913Z,87.20
2018-07-07T19:50:27.084Z,86.90
2018-07-07T19:52:55.341Z,87.90
2018-07-07T19:55:23.500Z,87.50
2018-07-07T19:57:51.645Z,88.10
2018-07-07T20:00:19.822Z,87.10
2018-07-07T20:02:48.011Z,88.30
2018-07-07T20:05:16.209Z,88.10
2018-07-07T20:07:44.426Z,88.10
2018-07-07T20:10:12.662Z,88.30
2018-07-07T20:12:40.839Z,88.50
2018-07-07T20:15:09.004Z,88.90
2018-07-07T20:18:08.338Z,88.70
2018-07-07T20:20:41.811Z,88.90
2018-07-07T20:23:11.468Z,88.80
2018-07-07T20:25:39.745Z,89.00
2018-07-07T20:28:13.462Z,88.70
2018-07-07T20:30:41.610Z,89.00
2018-07-07T20:33:09.781Z,89.20
2018-07-07T20:35:37.961Z,88.40
2018-07-07T20:40:34.054Z,88.60
2018-07-07T20:43:02.210Z,89.10
2018-07-07T20:45:30.489Z,89.50
2018-07-07T20:47:58.705Z,89.80
2018-07-07T20:50:26.845Z,89.90
2018-07-07T20:52:55.025Z,89.40
2018-07-07T20:55:23.181Z,88.40
2018-07-07T21:00:19.305Z,88.90
2018-07-07T21:02:47.464Z,88.40
2018-07-07T21:05:15.742Z,88.50
2018-07-07T21:07:43.902Z,89.20
2018-07-07T21:10:12.131Z,89.10
2018-07-07T21:12:40.314Z,89.00
2018-07-07T21:15:08.514Z,89.20
2018-07-07T21:17:36.672Z,89.20
2018-07-07T21:20:05.314Z,88.90
2018-07-07T21:22:33.567Z,88.00
2018-07-07T21:25:01.744Z,88.30
2018-07-07T21:27:29.894Z,89.20
2018-07-07T21:29:58.101Z,89.50
2018-07-07T21:32:26.422Z,89.40
2018-07-07T21:34:54.579Z,89.20
2018-07-07T21:37:22.755Z,89.10
2018-07-07T21:39:50.915Z,88.40
2018-07-07T21:42:19.166Z,88.80
2018-07-07T21:44:47.316Z,88.70
2018-07-07T21:47:15.517Z,89.00
2018-07-07T21:52:11.617Z,89.40
2018-07-07T21:54:39.770Z,89.30
2018-07-07T21:57:07.910Z,89.50
2018-07-07T21:59:36.042Z,88.90
2018-07-07T22:02:09.594Z,89.70
2018-07-07T22:05:47.037Z,90.00
2018-07-07T22:08:20.065Z,90.00
2018-07-07T22:10:48.618Z,90.00
2018-07-07T22:13:17.194Z,89.80
2018-07-07T22:15:45.347Z,90.20
2018-07-07T22:18:13.522Z,90.20
2018-07-07T22:20:47.370Z,90.10
2018-07-07T22:23:16.210Z,90.20
2018-07-07T22:25:44.381Z,90.40
2018-07-07T22:28:12.518Z,90.50
2018-07-07T22:30:40.649Z,90.60
2018-07-07T22:33:29.233Z,90.60
2018-07-07T22:36:02.821Z,90.70
2018-07-07T22:38:36.409Z,90.70
2018-07-07T22:41:04.527Z,90.60
2018-07-07T22:43:32.680Z,90.70
2018-07-07T22:46:01.262Z,90.80
2018-07-07T22:48:29.854Z,90.90
2018-07-07T22:50:57.994Z,91.10
2018-07-07T22:53:26.337Z,91.30
2018-07-07T22:55:54.465Z,91.50
2018-07-07T22:58:22.670Z,91.30
2018-07-07T23:00:50.890Z,91.50
2018-07-07T23:03:19.083Z,91.60
2018-07-07T23:05:47.214Z,91.60
2018-07-07T23:08:15.392Z,91.70
2018-07-07T23:10:43.498Z,91.80
2018-07-07T23:13:11.659Z,92.00
2018-07-07T23:15:40.373Z,92.00
2018-07-07T23:18:08.506Z,92.00
2018-07-07T23:20:36.638Z,92.20
2018-07-07T23:23:04.806Z,92.30
2018-07-07T23:25:33.031Z,92.20
2018-07-07T23:28:01.109Z,92.50
2018-07-07T23:30:29.238Z,92.50
2018-07-07T23:32:57.438Z,92.50
2018-07-07T23:35:25.897Z,92.70
2018-07-07T23:37:54.074Z,92.70
2018-07-07T23:40:22.214Z,92.90
2018-07-07T23:42:50.386Z,93.10
2018-07-07T23:45:18.574Z,93.20
2018-07-07T23:47:46.788Z,93.20
2018-07-07T23:50:14.913Z,93.30
2018-07-07T23:52:43.077Z,93.40
2018-07-07T23:55:11.318Z,93.30
2018-07-07T23:57:39.462Z,93.40
